Time;durP1;ratioP1;P1;durP2;ratioP2;P2;SDS_P1;SDS_P2;PMS_P1;PMS_P2;Temp;Humidity;BMP_temperature;BMP_pressure;BME280_temperature;BME280_humidity;BME280_pressure;Samples;Min_cycle;Max_cycle;Signal;HPM_P1;HPM_P2
2023/09/05 00:01:57;;;;;;;5.03;3.35;;;14.90;99.90;;;;;;5156343;27;20045;-73
2023/09/05 00:04:22;;;;;;;5.20;3.50;;;14.90;99.90;;;;;;5138399;27;20065;-73
2023/09/05 00:06:48;;;;;;;5.57;3.30;;;14.90;99.90;;;;;;5156222;27;20471;-74
2023/09/05 00:09:16;;;;;;;10.32;3.38;;;14.90;99.90;;;;;;5156328;27;20046;-73
2023/09/05 00:11:42;;;;;;;5.15;3.38;;;14.90;99.90;;;;;;5136999;27;20043;-74
2023/09/05 00:14:09;;;;;;;4.90;3.50;;;14.90;99.90;;;;;;5156201;27;20083;-73
2023/09/05 00:16:35;;;;;;;5.45;3.67;;;14.80;99.90;;;;;;5156498;27;20394;-74
2023/09/05 00:19:00;;;;;;;4.45;3.42;;;14.80;99.90;;;;;;5156340;27;20039;-74
2023/09/05 00:21:26;;;;;;;6.40;3.65;;;14.80;99.90;;;;;;5156311;27;20499;-73
2023/09/05 00:23:52;;;;;;;4.18;3.30;;;14.70;99.90;;;;;;5156287;27;20447;-73
2023/09/05 00:26:17;;;;;;;5.13;3.28;;;14.70;99.90;;;;;;5155445;27;20035;-73
2023/09/05 00:28:43;;;;;;;4.43;3.35;;;14.70;99.90;;;;;;5156623;27;20117;-73
2023/09/05 00:31:14;;;;;;;6.88;3.72;;;14.70;99.90;;;;;;5155902;27;20137;-73
2023/09/05 00:33:39;;;;;;;5.13;3.40;;;14.70;99.90;;;;;;5155894;27;20453;-73
2023/09/05 00:36:05;;;;;;;5.53;3.65;;;14.70;99.90;;;;;;5155043;27;20074;-73
2023/09/05 00:38:33;;;;;;;4.85;3.85;;;14.60;99.90;;;;;;5155255;27;20050;-73
2023/09/05 00:41:00;;;;;;;6.45;3.58;;;14.60;99.90;;;;;;5155863;27;20046;-73
2023/09/05 00:43:26;;;;;;;4.90;3.67;;;14.60;99.90;;;;;;5155567;27;20057;-73
2023/09/05 00:45:55;;;;;;;5.35;3.63;;;14.60;99.90;;;;;;5155924;27;20043;-74
2023/09/05 00:48:27;;;;;;;5.60;3.88;;;14.50;99.90;;;;;;5137366;27;20045;-74
2023/09/05 00:50:56;;;;;;;5.15;3.40;;;14.50;99.90;;;;;;5155224;27;20039;-74
2023/09/05 00:53:26;;;;;;;5.68;3.95;;;14.40;99.90;;;;;;5155890;27;20081;-73
2023/09/05 00:55:53;;;;;;;4.82;3.40;;;14.40;99.90;;;;;;5155257;27;20046;-74
2023/09/05 00:58:19;;;;;;;7.55;3.70;;;14.40;99.90;;;;;;5155223;27;20046;-74
2023/09/05 01:00:45;;;;;;;5.78;3.72;;;14.30;99.90;;;;;;5155262;27;20109;-74
2023/09/05 01:03:11;;;;;;;5.57;3.90;;;14.30;99.90;;;;;;5155862;27;20518;-73
2023/09/05 01:05:41;;;;;;;6.65;4.15;;;14.30;99.90;;;;;;5155800;27;20489;-74
2023/09/05 01:08:14;;;;;;;5.45;3.78;;;14.30;99.90;;;;;;5155758;27;20043;-74
2023/09/05 01:11:00;;;;;;;6.70;4.43;;;14.30;99.90;;;;;;5155621;27;20391;-74
2023/09/05 01:13:27;;;;;;;4.10;3.20;;;14.30;99.90;;;;;;5155489;27;20053;-74
2023/09/05 01:15:54;;;;;;;4.75;3.40;;;14.30;99.90;;;;;;5155848;27;20484;-73
2023/09/05 01:18:20;;;;;;;6.28;4.10;;;14.10;99.90;;;;;;5155991;27;20042;-73
2023/09/05 01:20:59;;;;;;;5.40;3.50;;;14.00;99.90;;;;;;5155305;27;20047;-73
2023/09/05 01:23:31;;;;;;;4.45;3.45;;;13.90;99.90;;;;;;5156019;27;20039;-73
2023/09/05 01:25:59;;;;;;;5.80;3.75;;;13.80;99.90;;;;;;5154430;27;20035;-74
2023/09/05 01:28:26;;;;;;;5.70;4.30;;;13.80;99.90;;;;;;5136402;27;20050;-74
2023/09/05 01:30:53;;;;;;;5.40;3.30;;;13.80;99.90;;;;;;5155335;27;20106;-74
2023/09/05 01:33:18;;;;;;;4.80;3.10;;;13.70;99.90;;;;;;5155493;27;20099;-74
2023/09/05 01:35:44;;;;;;;4.35;3.30;;;13.70;99.90;;;;;;5154889;27;20043;-74
2023/09/05 01:38:10;;;;;;;6.10;3.70;;;13.80;99.90;;;;;;5154959;27;20122;-74
2023/09/05 01:40:36;;;;;;;7.13;5.00;;;13.80;99.90;;;;;;5154692;27;20039;-74
2023/09/05 01:43:02;;;;;;;7.07;4.82;;;13.80;99.90;;;;;;5155068;27;20480;-73
2023/09/05 01:45:28;;;;;;;6.38;4.80;;;13.90;99.90;;;;;;5155379;27;20062;-74
2023/09/05 01:47:53;;;;;;;7.20;4.97;;;13.90;99.90;;;;;;5154657;27;20053;-74
2023/09/05 01:50:21;;;;;;;6.40;4.95;;;13.90;99.90;;;;;;5154837;27;20471;-74
2023/09/05 01:52:47;;;;;;;8.18;5.10;;;13.90;99.90;;;;;;5155214;27;20395;-74
2023/09/05 01:55:13;;;;;;;6.28;5.07;;;13.90;99.90;;;;;;5155074;27;20031;-74
2023/09/05 01:57:39;;;;;;;7.10;5.50;;;13.80;99.90;;;;;;5154366;27;20077;-74
2023/09/05 02:00:05;;;;;;;6.88;5.43;;;13.80;99.90;;;;;;5155028;27;20045;-74
2023/09/05 02:02:30;;;;;;;7.10;5.82;;;13.80;99.90;;;;;;5154529;27;20487;-74
2023/09/05 02:04:56;;;;;;;8.23;5.82;;;13.80;99.90;;;;;;5136162;27;20081;-74
2023/09/05 02:07:22;;;;;;;7.72;5.78;;;13.80;99.90;;;;;;5154604;27;20043;-73
2023/09/05 02:09:47;;;;;;;7.55;5.97;;;13.80;99.90;;;;;;5155026;27;20034;-74
2023/09/05 02:12:14;;;;;;;8.32;6.10;;;13.70;99.90;;;;;;5154887;27;20053;-73
2023/09/05 02:14:45;;;;;;;7.00;5.60;;;13.70;99.90;;;;;;5155255;27;20087;-74
2023/09/05 02:17:16;;;;;;;7.28;5.60;;;13.70;99.90;;;;;;5155109;27;20050;-73
2023/09/05 02:19:41;;;;;;;7.32;5.32;;;13.70;99.90;;;;;;5136576;27;20047;-74
2023/09/05 02:22:07;;;;;;;7.68;6.10;;;13.60;99.90;;;;;;5155188;27;20069;-73
2023/09/05 02:24:33;;;;;;;7.22;6.30;;;13.60;99.90;;;;;;5154362;27;20443;-73
2023/09/05 02:27:01;;;;;;;7.47;5.85;;;13.60;99.90;;;;;;5136046;27;20057;-73
2023/09/05 02:29:27;;;;;;;8.65;6.05;;;13.50;99.90;;;;;;5136682;27;20042;-73
2023/09/05 02:31:53;;;;;;;8.65;6.45;;;13.50;99.90;;;;;;5146894;27;20484;-73
2023/09/05 02:34:19;;;;;;;6.60;5.75;;;13.50;99.90;;;;;;5144362;27;20039;-73
2023/09/05 02:36:45;;;;;;;8.18;5.85;;;13.50;99.90;;;;;;5135544;27;20047;-74
2023/09/05 02:39:11;;;;;;;8.23;6.15;;;13.50;99.90;;;;;;5153929;27;20039;-73
2023/09/05 02:41:36;;;;;;;8.18;6.32;;;13.50;99.90;;;;;;5154328;27;20042;-73
2023/09/05 02:44:02;;;;;;;7.78;5.70;;;13.50;99.90;;;;;;5153871;27;20477;-74
2023/09/05 02:46:28;;;;;;;7.93;6.13;;;13.60;99.90;;;;;;5154420;27;20078;-74
2023/09/05 02:48:53;;;;;;;8.68;6.45;;;13.60;99.90;;;;;;5154125;27;20039;-73
2023/09/05 02:51:19;;;;;;;8.15;6.30;;;13.60;99.90;;;;;;5154686;27;20480;-73
2023/09/05 02:53:45;;;;;;;7.32;6.00;;;13.60;99.90;;;;;;5154349;27;20070;-73
2023/09/05 02:56:12;;;;;;;7.00;5.22;;;13.60;99.90;;;;;;5147475;27;20043;-74
2023/09/05 02:58:38;;;;;;;6.00;3.83;;;13.60;99.90;;;;;;5136975;27;20376;-72
2023/09/05 03:01:05;;;;;;;6.10;4.05;;;13.60;99.90;;;;;;5158255;27;20050;-73
2023/09/05 03:03:31;;;;;;;4.82;3.85;;;13.50;99.90;;;;;;5158641;27;20135;-73
2023/09/05 03:06:06;;;;;;;6.00;4.75;;;13.50;99.90;;;;;;5158122;27;20039;-73
2023/09/05 03:08:34;;;;;;;10.55;6.60;;;13.50;99.90;;;;;;5158467;27;20512;-73
2023/09/05 03:11:00;;;;;;;10.80;6.43;;;13.50;99.90;;;;;;5157995;27;20125;-73
2023/09/05 03:13:26;;;;;;;8.70;6.78;;;13.50;99.90;;;;;;5157305;27;20483;-73
2023/09/05 03:15:52;;;;;;;7.30;6.15;;;13.50;99.90;;;;;;5156754;27;20042;-73
2023/09/05 03:18:18;;;;;;;8.85;6.20;;;13.40;99.90;;;;;;5157668;27;20391;-73
2023/09/05 03:20:44;;;;;;;8.38;6.30;;;13.40;99.90;;;;;;5157432;27;20050;-74
2023/09/05 03:23:11;;;;;;;8.13;6.55;;;13.40;99.90;;;;;;5157729;27;20495;-73
2023/09/05 03:25:37;;;;;;;8.70;6.72;;;13.40;99.90;;;;;;5157818;27;20047;-73
2023/09/05 03:28:03;;;;;;;8.18;6.65;;;13.40;99.90;;;;;;5157744;27;20035;-73
2023/09/05 03:30:29;;;;;;;9.57;6.78;;;13.40;99.90;;;;;;5139611;27;20043;-73
2023/09/05 03:32:54;;;;;;;8.05;6.55;;;13.40;99.90;;;;;;5139414;27;20039;-73
2023/09/05 03:35:20;;;;;;;9.13;7.18;;;13.40;99.90;;;;;;5157222;27;20484;-73
2023/09/05 03:37:46;;;;;;;9.50;6.53;;;13.40;99.90;;;;;;5157870;27;20049;-73
2023/09/05 03:40:12;;;;;;;10.18;6.55;;;13.50;99.90;;;;;;5157196;27;20038;-73
2023/09/05 03:42:38;;;;;;;8.48;6.80;;;13.50;99.90;;;;;;5157687;27;20107;-73
2023/09/05 03:45:04;;;;;;;9.98;6.65;;;13.50;99.90;;;;;;5139045;27;20473;-73
2023/09/05 03:47:30;;;;;;;9.20;6.75;;;13.50;99.90;;;;;;5157081;27;20074;-73
2023/09/05 03:49:56;;;;;;;7.13;5.93;;;13.50;99.90;;;;;;5138581;27;20387;-73
2023/09/05 03:52:21;;;;;;;9.07;6.45;;;13.50;99.90;;;;;;5154607;27;20043;-72
2023/09/05 03:54:47;;;;;;;10.85;6.97;;;13.50;99.90;;;;;;5154925;27;20051;-72
2023/09/05 03:57:13;;;;;;;8.68;6.85;;;13.50;99.90;;;;;;5154271;27;20035;-72
2023/09/05 03:59:39;;;;;;;8.95;7.00;;;13.50;99.90;;;;;;5135013;27;20054;-72
2023/09/05 04:02:04;;;;;;;8.73;6.68;;;13.50;99.90;;;;;;5138588;27;20031;-73
2023/09/05 04:04:30;;;;;;;9.13;6.38;;;13.50;99.90;;;;;;5157228;27;20039;-73
2023/09/05 04:06:56;;;;;;;8.65;6.47;;;13.50;99.90;;;;;;5156788;27;20034;-73
2023/09/05 04:09:21;;;;;;;7.80;5.97;;;13.50;99.90;;;;;;5157462;27;20035;-73
2023/09/05 04:11:47;;;;;;;8.27;6.43;;;13.40;99.90;;;;;;5157125;27;20042;-73
2023/09/05 04:14:13;;;;;;;8.30;6.20;;;13.40;99.90;;;;;;5156967;27;20458;-73
2023/09/05 04:16:39;;;;;;;9.32;6.47;;;13.40;99.90;;;;;;5156537;27;20410;-73
2023/09/05 04:19:06;;;;;;;7.85;6.20;;;13.30;99.90;;;;;;5156521;27;20038;-73
2023/09/05 04:21:31;;;;;;;8.13;6.10;;;13.30;99.90;;;;;;5156832;27;20050;-72
2023/09/05 04:23:57;;;;;;;6.45;5.18;;;13.30;99.90;;;;;;5157103;27;20042;-73
2023/09/05 04:26:25;;;;;;;6.68;5.22;;;13.20;99.90;;;;;;5156107;27;20047;-73
2023/09/05 04:28:50;;;;;;;7.82;5.53;;;13.20;99.90;;;;;;5156013;27;20045;-73
2023/09/05 04:31:19;;;;;;;7.03;5.40;;;13.10;99.90;;;;;;5156334;27;20117;-73
2023/09/05 04:33:45;;;;;;;7.07;5.20;;;13.10;99.90;;;;;;5156693;27;20089;-73
2023/09/05 04:36:11;;;;;;;5.35;4.47;;;13.00;99.90;;;;;;5137414;27;20047;-73
2023/09/05 04:38:38;;;;;;;6.15;5.00;;;12.90;99.90;;;;;;5137714;27;20042;-73
2023/09/05 04:41:05;;;;;;;6.03;4.45;;;12.90;99.90;;;;;;5156287;27;20046;-72
2023/09/05 04:43:31;;;;;;;6.15;5.10;;;12.90;99.90;;;;;;5156270;27;20046;-73
2023/09/05 04:45:57;;;;;;;7.03;5.20;;;12.90;99.90;;;;;;5155993;27;20086;-73
2023/09/05 04:48:23;;;;;;;6.85;5.45;;;12.90;99.90;;;;;;5155516;27;20060;-74
2023/09/05 04:50:49;;;;;;;7.05;5.57;;;12.90;99.90;;;;;;5155457;27;20042;-73
2023/09/05 04:53:15;;;;;;;7.80;6.05;;;12.90;99.90;;;;;;5155968;27;20059;-73
2023/09/05 04:55:44;;;;;;;7.03;5.60;;;12.90;99.90;;;;;;5155760;27;20034;-73
2023/09/05 04:58:13;;;;;;;8.63;5.72;;;12.90;99.90;;;;;;5155878;27;20079;-73
2023/09/05 05:00:40;;;;;;;7.57;5.43;;;12.90;99.90;;;;;;5155840;27;20038;-73
2023/09/05 05:03:06;;;;;;;8.63;5.82;;;13.00;99.90;;;;;;5156011;27;20046;-73
2023/09/05 05:05:31;;;;;;;6.57;5.25;;;13.00;99.90;;;;;;5155855;27;20103;-73
2023/09/05 05:07:57;;;;;;;5.53;4.53;;;13.00;99.90;;;;;;5137526;27;20039;-73
2023/09/05 05:10:23;;;;;;;6.07;4.80;;;13.00;99.90;;;;;;5155956;27;20042;-73
2023/09/05 05:12:48;;;;;;;6.90;4.93;;;13.00;99.90;;;;;;5155848;27;20369;-73
2023/09/05 05:15:14;;;;;;;7.88;5.65;;;12.90;99.90;;;;;;5155089;27;20035;-73
2023/09/05 05:17:40;;;;;;;5.45;4.47;;;12.90;99.90;;;;;;5155063;27;20121;-73
2023/09/05 05:20:06;;;;;;;4.97;4.28;;;12.90;99.90;;;;;;5155956;27;20053;-73
2023/09/05 05:22:33;;;;;;;5.88;4.10;;;12.90;99.90;;;;;;5155025;27;20043;-73
2023/09/05 05:24:59;;;;;;;5.88;4.72;;;12.80;99.90;;;;;;5119258;27;20046;-72
2023/09/05 05:27:25;;;;;;;7.28;5.45;;;12.80;99.90;;;;;;5154623;27;20487;-72
2023/09/05 05:29:52;;;;;;;5.47;4.43;;;12.80;99.90;;;;;;5155303;27;20042;-73
2023/09/05 05:32:18;;;;;;;5.88;4.60;;;12.80;99.90;;;;;;5155570;27;20051;-73
2023/09/05 05:34:48;;;;;;;6.32;4.80;;;12.80;99.90;;;;;;5137014;27;20046;-73
2023/09/05 05:37:15;;;;;;;6.63;4.88;;;12.80;99.90;;;;;;5136891;27;20046;-73
2023/09/05 05:39:42;;;;;;;6.90;4.80;;;12.90;99.90;;;;;;5151562;27;20099;-73
2023/09/05 05:42:07;;;;;;;8.55;5.20;;;12.90;99.90;;;;;;5155210;27;20061;-72
2023/09/05 05:44:33;;;;;;;7.80;4.88;;;13.00;99.90;;;;;;5154997;27;20042;-73
2023/09/05 05:46:59;;;;;;;7.20;5.43;;;13.10;99.90;;;;;;5154742;27;20090;-73
2023/09/05 05:49:29;;;;;;;8.77;5.53;;;13.10;99.90;;;;;;5155086;27;20051;-73
2023/09/05 05:51:58;;;;;;;7.93;5.82;;;13.20;99.90;;;;;;5154562;27;20065;-72
2023/09/05 05:54:25;;;;;;;6.85;5.25;;;13.30;99.90;;;;;;5154746;27;20039;-73
2023/09/05 05:56:55;;;;;;;8.35;5.82;;;13.40;99.90;;;;;;5136443;27;20099;-74
2023/09/05 05:59:21;;;;;;;7.70;5.80;;;13.50;99.90;;;;;;5136785;27;20057;-73
2023/09/05 06:01:47;;;;;;;8.48;6.25;;;13.60;99.90;;;;;;5154770;27;20034;-73
2023/09/05 06:04:15;;;;;;;7.60;5.75;;;13.70;99.90;;;;;;5155285;27;20047;-73
2023/09/05 06:06:42;;;;;;;7.90;5.88;;;13.80;99.90;;;;;;5154285;27;20050;-73
2023/09/05 06:09:09;;;;;;;7.97;5.78;;;13.90;99.90;;;;;;5155062;27;20041;-73
2023/09/05 06:11:35;;;;;;;8.40;5.93;;;14.00;99.90;;;;;;5154778;27;20045;-66
2023/09/05 06:14:00;;;;;;;8.15;5.97;;;14.10;99.90;;;;;;5154601;27;20130;-66
2023/09/05 06:16:26;;;;;;;7.22;5.53;;;14.30;99.90;;;;;;5153991;27;20043;-67
2023/09/05 06:18:52;;;;;;;8.82;6.13;;;14.40;99.90;;;;;;5154468;27;20118;-66
2023/09/05 06:21:17;;;;;;;8.60;6.25;;;14.50;99.90;;;;;;5155218;27;20074;-66
2023/09/05 06:23:43;;;;;;;7.93;6.03;;;14.60;99.90;;;;;;5154902;27;20043;-66
2023/09/05 06:26:09;;;;;;;8.88;5.95;;;14.70;99.90;;;;;;5136315;27;20042;-67
2023/09/05 06:28:35;;;;;;;8.43;5.95;;;14.90;99.90;;;;;;5153950;27;20047;-67
2023/09/05 06:31:01;;;;;;;7.90;6.32;;;15.00;99.90;;;;;;5135683;27;20034;-68
2023/09/05 06:33:26;;;;;;;9.02;6.18;;;15.10;99.90;;;;;;5137977;27;20400;-67
2023/09/05 06:35:53;;;;;;;7.88;5.68;;;15.20;99.90;;;;;;5158769;27;20046;-67
2023/09/05 06:38:21;;;;;;;7.22;5.80;;;15.30;99.90;;;;;;5152219;27;20125;-67
2023/09/05 06:40:47;;;;;;;8.05;5.95;;;15.40;99.90;;;;;;5158568;27;20046;-67
2023/09/05 06:43:13;;;;;;;8.98;6.15;;;15.50;99.90;;;;;;5140227;27;20038;-67
2023/09/05 06:45:39;;;;;;;8.27;5.97;;;15.60;99.90;;;;;;5140295;27;20043;-67
2023/09/05 06:48:06;;;;;;;7.90;5.90;;;15.70;99.90;;;;;;5158351;27;20403;-67
2023/09/05 06:50:32;;;;;;;7.03;5.60;;;15.80;99.90;;;;;;5158644;27;20417;-67
2023/09/05 06:52:57;;;;;;;6.78;5.53;;;15.90;99.90;;;;;;5158611;27;20054;-67
2023/09/05 06:55:23;;;;;;;6.60;5.57;;;16.00;99.90;;;;;;5158408;27;20471;-67
2023/09/05 06:57:49;;;;;;;6.93;5.45;;;16.10;99.90;;;;;;5157620;27;20046;-66
2023/09/05 07:00:14;;;;;;;7.05;5.35;;;16.20;99.90;;;;;;5158618;27;20043;-67
2023/09/05 07:02:40;;;;;;;6.90;5.55;;;16.30;99.90;;;;;;5157733;27;20057;-67
2023/09/05 07:05:07;;;;;;;7.25;5.50;;;16.40;99.90;;;;;;5158669;27;20038;-67
2023/09/05 07:07:32;;;;;;;7.63;5.78;;;16.50;99.90;;;;;;5155814;27;20049;-67
2023/09/05 07:09:59;;;;;;;7.75;5.80;;;16.60;99.90;;;;;;5149177;27;20109;-66
2023/09/05 07:12:24;;;;;;;6.88;5.32;;;16.70;99.90;;;;;;5156896;27;20099;-66
2023/09/05 07:14:52;;;;;;;6.95;4.82;;;16.90;99.90;;;;;;5157199;27;20038;-66
2023/09/05 07:17:17;;;;;;;6.50;5.25;;;17.00;99.90;;;;;;5157616;27;20049;-66
2023/09/05 07:19:43;;;;;;;7.18;5.30;;;17.10;99.90;;;;;;5157491;27;20034;-66
2023/09/05 07:22:09;;;;;;;6.63;5.10;;;17.20;99.90;;;;;;5157087;27;20381;-67
2023/09/05 07:24:34;;;;;;;6.25;4.78;;;17.30;99.90;;;;;;5157218;27;20039;-66
2023/09/05 07:27:00;;;;;;;6.90;5.32;;;17.40;99.90;;;;;;5156829;27;20498;-66
2023/09/05 07:29:26;;;;;;;6.68;5.13;;;17.50;99.90;;;;;;5157133;27;20046;-66
2023/09/05 07:31:52;;;;;;;9.18;5.40;;;17.60;99.90;;;;;;5157294;27;20046;-66
2023/09/05 07:34:18;;;;;;;6.32;5.20;;;17.80;99.90;;;;;;5157400;27;20391;-66
2023/09/05 07:36:44;;;;;;;7.40;5.70;;;17.90;99.90;;;;;;5156957;27;20035;-66
2023/09/05 07:39:10;;;;;;;8.95;5.53;;;18.00;99.90;;;;;;5157288;27;20050;-67
2023/09/05 07:41:38;;;;;;;7.03;5.28;;;18.20;99.90;;;;;;5157532;27;20042;-67
2023/09/05 07:44:04;;;;;;;6.75;4.95;;;18.30;99.90;;;;;;5137572;27;20043;-68
2023/09/05 07:46:29;;;;;;;6.15;5.18;;;18.40;99.90;;;;;;5156745;27;20043;-68
2023/09/05 07:48:55;;;;;;;6.53;4.82;;;18.60;99.90;;;;;;5130982;27;20065;-68
2023/09/05 07:51:22;;;;;;;6.80;5.20;;;18.70;99.90;;;;;;5131281;27;20055;-68
2023/09/05 07:54:03;;;;;;;6.85;4.78;;;18.80;99.90;;;;;;5138473;27;20051;-67
2023/09/05 07:56:29;;;;;;;7.68;5.03;;;19.00;99.90;;;;;;5135031;28;20542;-67
2023/09/05 07:58:55;;;;;;;7.32;4.43;;;19.10;99.90;;;;;;5134571;28;20043;-68
2023/09/05 08:01:21;;;;;;;5.57;3.95;;;19.20;99.90;;;;;;5135449;28;20043;-67
2023/09/05 08:03:49;;;;;;;6.53;3.88;;;19.40;99.90;;;;;;5153793;27;20046;-67
2023/09/05 08:06:15;;;;;;;5.45;4.18;;;19.50;99.90;;;;;;5155499;27;20039;-67
2023/09/05 08:08:41;;;;;;;4.70;3.63;;;19.70;99.90;;;;;;5155440;27;20039;-67
2023/09/05 08:11:06;;;;;;;6.72;3.95;;;19.80;99.90;;;;;;5156214;27;20066;-67
2023/09/05 08:13:32;;;;;;;6.70;3.42;;;19.90;99.90;;;;;;5155933;27;20053;-67
2023/09/05 08:15:58;;;;;;;6.20;3.60;;;20.10;99.90;;;;;;5155628;27;20520;-68
2023/09/05 08:18:24;;;;;;;4.93;3.42;;;20.20;99.90;;;;;;5156126;27;20053;-67
2023/09/05 08:20:50;;;;;;;5.72;3.17;;;20.40;99.90;;;;;;5155898;27;20046;-67
2023/09/05 08:23:15;;;;;;;6.00;3.40;;;20.50;99.90;;;;;;5155163;27;20046;-68
2023/09/05 08:25:41;;;;;;;3.53;2.97;;;20.70;99.90;;;;;;5155672;27;20034;-67
2023/09/05 08:28:07;;;;;;;4.78;3.20;;;20.80;99.90;;;;;;5155607;27;20440;-68
2023/09/05 08:30:33;;;;;;;4.18;2.55;;;21.00;99.90;;;;;;5153181;27;20049;-67
2023/09/05 08:33:01;;;;;;;3.65;2.10;;;21.10;99.90;;;;;;5134936;28;20470;-68
2023/09/05 08:35:30;;;;;;;3.72;2.55;;;21.30;99.90;;;;;;5134855;28;20039;-68
2023/09/05 08:37:57;;;;;;;3.53;2.20;;;21.40;99.90;;;;;;5134606;28;20104;-67
2023/09/05 08:40:23;;;;;;;3.10;2.45;;;21.60;99.90;;;;;;5116858;28;20054;-67
2023/09/05 08:42:53;;;;;;;4.15;2.35;;;21.60;99.90;;;;;;5135470;27;20380;-67
2023/09/05 08:45:23;;;;;;;4.10;2.45;;;21.80;99.90;;;;;;5136906;27;20054;-68
2023/09/05 08:47:50;;;;;;;2.75;2.10;;;21.90;99.90;;;;;;5155695;27;20083;-67
2023/09/05 08:50:16;;;;;;;2.83;2.13;;;22.00;99.90;;;;;;5155431;27;20054;-69
2023/09/05 08:52:43;;;;;;;2.78;2.05;;;22.20;99.90;;;;;;5116495;27;1100700;-67
2023/09/05 08:55:10;;;;;;;3.88;2.10;;;22.30;99.90;;;;;;5155905;27;20051;-67
2023/09/05 08:57:40;;;;;;;3.45;2.00;;;22.40;99.90;;;;;;5155441;27;20692;-67
2023/09/05 09:00:06;;;;;;;3.30;1.98;;;22.60;99.90;;;;;;5155791;27;20075;-68
2023/09/05 09:02:35;;;;;;;3.55;2.00;;;22.70;99.90;;;;;;5155393;27;20035;-67
2023/09/05 09:05:01;;;;;;;4.10;2.20;;;22.80;99.90;;;;;;5156216;27;20482;-67
2023/09/05 09:07:27;;;;;;;3.60;2.47;;;22.90;99.90;;;;;;5155752;27;20090;-67
2023/09/05 09:09:57;;;;;;;4.55;2.20;;;23.10;99.90;;;;;;5137320;27;20042;-67
2023/09/05 09:12:41;;;;;;;2.80;1.98;;;23.20;99.90;;;;;;5137663;27;20058;-67
2023/09/05 09:15:10;;;;;;;2.55;1.73;;;23.40;99.90;;;;;;5155702;27;20527;-67
2023/09/05 09:17:39;;;;;;;3.47;1.77;;;23.50;99.90;;;;;;5155680;27;20050;-67
2023/09/05 09:20:06;;;;;;;3.60;2.00;;;23.60;99.90;;;;;;5156150;27;20087;-68
2023/09/05 09:22:31;;;;;;;3.42;1.80;;;23.60;99.90;;;;;;5155662;27;20471;-68
2023/09/05 09:24:57;;;;;;;2.65;1.75;;;23.80;99.90;;;;;;5155846;27;20042;-67
2023/09/05 09:27:23;;;;;;;2.10;1.45;;;23.90;99.90;;;;;;5155215;27;20548;-68
2023/09/05 09:29:57;;;;;;;3.30;1.63;;;24.00;99.90;;;;;;5154840;27;20047;-68
2023/09/05 09:32:24;;;;;;;2.38;1.42;;;24.10;99.90;;;;;;5137376;27;20118;-67
2023/09/05 09:34:50;;;;;;;4.18;1.80;;;24.20;99.90;;;;;;5142328;27;20099;-68
2023/09/05 09:37:26;;;;;;;2.63;1.55;;;24.30;99.90;;;;;;5117468;27;20104;-68
2023/09/05 09:40:02;;;;;;;2.60;1.60;;;24.40;99.90;;;;;;5136774;27;20474;-66
2023/09/05 09:42:29;;;;;;;2.97;1.70;;;24.60;99.90;;;;;;5136543;27;20478;-66
2023/09/05 09:44:55;;;;;;;3.00;1.77;;;24.60;99.90;;;;;;5118333;27;20129;-66
2023/09/05 09:47:21;;;;;;;3.25;1.70;;;24.70;99.90;;;;;;5134513;27;20122;-69
2023/09/05 09:49:51;;;;;;;3.38;1.60;;;24.90;99.90;;;;;;5134276;27;20039;-67
2023/09/05 09:52:20;;;;;;;2.63;2.00;;;25.10;99.90;;;;;;5134552;27;20059;-66
2023/09/05 09:54:47;;;;;;;2.90;1.65;;;25.20;99.90;;;;;;5134744;27;20082;-66
2023/09/05 09:57:18;;;;;;;4.13;1.70;;;25.20;99.90;;;;;;5133765;27;20039;-66
2023/09/05 09:59:49;;;;;;;3.35;1.85;;;25.30;99.90;;;;;;5129161;27;20050;-66
2023/09/05 10:02:16;;;;;;;3.60;1.65;;;25.40;99.90;;;;;;5149804;27;20096;-66
2023/09/05 10:04:43;;;;;;;2.60;1.70;;;25.50;99.90;;;;;;5135995;27;20078;-65
2023/09/05 10:07:14;;;;;;;2.88;1.67;;;25.60;99.90;;;;;;5136604;27;20061;-67
2023/09/05 10:09:41;;;;;;;3.08;1.88;;;25.60;99.90;;;;;;5154838;27;20046;-66
2023/09/05 10:12:07;;;;;;;2.90;1.85;;;25.70;99.90;;;;;;5136383;27;20386;-67
2023/09/05 10:14:36;;;;;;;2.75;1.70;;;25.80;99.90;;;;;;5152882;27;20287;-67
2023/09/05 10:17:03;;;;;;;4.10;1.55;;;25.90;99.90;;;;;;5152915;27;20078;-67
2023/09/05 10:19:29;;;;;;;3.17;1.58;;;26.10;99.90;;;;;;5154123;27;20093;-66
2023/09/05 10:21:57;;;;;;;2.30;1.60;;;26.20;99.90;;;;;;5154358;27;20054;-66
2023/09/05 10:24:30;;;;;;;2.92;2.10;;;26.30;99.90;;;;;;5154661;27;20042;-67
2023/09/05 10:26:57;;;;;;;2.78;1.60;;;26.40;99.90;;;;;;5153929;27;20042;-67
2023/09/05 10:29:34;;;;;;;3.72;1.75;;;26.50;99.90;;;;;;5144395;27;20035;-67
2023/09/05 10:32:04;;;;;;;4.05;1.50;;;26.70;99.90;;;;;;5133577;28;20047;-67
2023/09/05 10:34:48;;;;;;;2.70;1.20;;;26.90;99.90;;;;;;5133647;28;20039;-67
2023/09/05 10:37:14;;;;;;;3.10;1.50;;;27.00;99.90;;;;;;5133709;27;20100;-67
2023/09/05 10:39:47;;;;;;;3.55;1.52;;;27.10;99.90;;;;;;5119013;27;20091;-65
2023/09/05 10:42:13;;;;;;;3.03;1.77;;;27.20;99.90;;;;;;5154144;27;20047;-67
2023/09/05 10:44:45;;;;;;;2.78;1.40;;;27.30;99.90;;;;;;5120056;28;20035;-67
2023/09/05 10:47:30;;;;;;;2.55;1.20;;;27.40;99.90;;;;;;5115798;28;20538;-67
2023/09/05 10:50:07;;;;;;;2.38;1.52;;;27.50;99.90;;;;;;5133273;28;20051;-67
2023/09/05 10:52:33;;;;;;;2.00;1.10;;;27.60;99.90;;;;;;5115284;28;20051;-67
2023/09/05 10:55:25;;;;;;;2.40;1.23;;;27.60;99.90;;;;;;5133057;28;20066;-67
2023/09/05 10:57:51;;;;;;;2.53;1.40;;;27.70;99.90;;;;;;5103645;28;20047;-67
2023/09/05 11:00:17;;;;;;;2.20;1.15;;;27.80;99.90;;;;;;5133274;27;20059;-67
2023/09/05 11:02:45;;;;;;;2.42;1.30;;;27.90;99.90;;;;;;5125042;27;20055;-67
2023/09/05 11:05:20;;;;;;;1.92;1.13;;;28.00;99.90;;;;;;5153803;27;20085;-66
2023/09/05 11:07:50;;;;;;;2.08;1.30;;;28.00;99.90;;;;;;5135814;27;20062;-66
2023/09/05 11:10:34;;;;;;;2.25;1.30;;;28.00;99.90;;;;;;5154189;27;20049;-65
2023/09/05 11:13:13;;;;;;;1.90;1.20;;;27.90;99.90;;;;;;5154102;27;20042;-65
2023/09/05 11:15:44;;;;;;;2.35;1.30;;;27.80;99.90;;;;;;5154241;27;20083;-65
2023/09/05 11:18:12;;;;;;;2.55;1.25;;;27.70;99.90;;;;;;5154359;27;20077;-66
2023/09/05 11:20:46;;;;;;;4.13;1.42;;;27.70;99.90;;;;;;5156831;27;20043;-65
2023/09/05 11:23:16;;;;;;;3.08;1.35;;;27.60;99.90;;;;;;5157959;27;20055;-66
2023/09/05 11:25:53;;;;;;;2.03;0.88;;;27.50;99.90;;;;;;5139696;27;20054;-65
2023/09/05 11:28:22;;;;;;;4.10;1.40;;;27.50;99.90;;;;;;5157214;27;20053;-65
2023/09/05 11:30:52;;;;;;;1.83;1.10;;;27.40;99.90;;;;;;5134225;27;20043;-66
2023/09/05 11:33:19;;;;;;;2.45;1.13;;;27.40;99.90;;;;;;5136371;27;20058;-67
2023/09/05 11:35:46;;;;;;;2.03;1.05;;;27.40;99.90;;;;;;5136349;27;20079;-66
2023/09/05 11:38:12;;;;;;;1.67;0.80;;;27.40;99.90;;;;;;5136857;27;20047;-67
2023/09/05 11:40:40;;;;;;;3.15;1.05;;;27.40;99.90;;;;;;5118598;27;20050;-65
2023/09/05 11:43:11;;;;;;;4.07;1.02;;;27.40;99.90;;;;;;5139736;27;20095;-67
2023/09/05 11:45:39;;;;;;;2.30;1.00;;;27.30;99.90;;;;;;5157268;27;20049;-66
2023/09/05 11:48:08;;;;;;;1.67;0.93;;;27.30;99.90;;;;;;5156343;27;20577;-67
2023/09/05 11:50:34;;;;;;;2.17;1.13;;;27.40;99.90;;;;;;5156622;27;20047;-67
2023/09/05 11:53:03;;;;;;;1.73;0.80;;;27.40;99.90;;;;;;5156680;27;20054;-67
2023/09/05 11:55:29;;;;;;;3.30;1.20;;;27.40;99.90;;;;;;5157432;27;20168;-67
2023/09/05 11:57:58;;;;;;;2.03;0.95;;;27.40;99.90;;;;;;5156499;27;20433;-66
2023/09/05 12:00:25;;;;;;;1.60;0.90;;;27.40;99.90;;;;;;5156725;27;20054;-66
2023/09/05 12:02:52;;;;;;;1.73;1.00;;;27.40;99.90;;;;;;5156983;27;20043;-66
2023/09/05 12:05:21;;;;;;;1.70;0.93;;;27.40;99.90;;;;;;5157033;27;20043;-67
2023/09/05 12:07:53;;;;;;;2.00;0.98;;;27.40;99.90;;;;;;5157170;27;20042;-67
2023/09/05 12:10:20;;;;;;;2.55;1.10;;;27.40;99.90;;;;;;5156413;27;20046;-67
2023/09/05 12:12:53;;;;;;;2.13;0.80;;;27.40;99.90;;;;;;5138540;27;20054;-67
2023/09/05 12:15:29;;;;;;;1.83;1.00;;;27.50;99.90;;;;;;5157017;27;20045;-66
2023/09/05 12:18:00;;;;;;;2.20;1.05;;;27.50;99.90;;;;;;5156665;27;20054;-67
2023/09/05 12:20:26;;;;;;;2.65;1.10;;;27.50;99.90;;;;;;5156975;27;20423;-66
2023/09/05 12:22:52;;;;;;;2.30;1.23;;;27.50;99.90;;;;;;5147966;27;20050;-67
2023/09/05 12:25:21;;;;;;;1.95;0.90;;;27.50;99.90;;;;;;5117595;27;20040;-67
2023/09/05 12:27:49;;;;;;;1.63;1.00;;;27.50;99.90;;;;;;5117655;27;20047;-66
2023/09/05 12:30:26;;;;;;;2.47;1.02;;;27.50;99.90;;;;;;5134982;27;20133;-66
2023/09/05 12:33:03;;;;;;;3.72;1.05;;;27.60;99.90;;;;;;5135427;27;20043;-66
2023/09/05 12:35:31;;;;;;;1.50;0.90;;;27.60;99.90;;;;;;5136062;27;20089;-66
2023/09/05 12:38:01;;;;;;;1.42;0.90;;;27.60;99.90;;;;;;5142552;27;20039;-67
2023/09/05 12:40:28;;;;;;;2.13;1.20;;;27.60;99.90;;;;;;5156154;27;20043;-66
2023/09/05 12:42:54;;;;;;;2.67;1.05;;;27.80;99.90;;;;;;5154379;27;20521;-67
2023/09/05 12:45:20;;;;;;;1.90;1.00;;;28.40;99.90;;;;;;5122208;27;20042;-66
2023/09/05 12:47:51;;;;;;;2.00;1.05;;;29.30;99.90;;;;;;5144532;27;20057;-68